createdAt,value
2019-05-23T00:00:43.892Z,56.49
2019-05-23T00:03:14.895Z,56.27
2019-05-23T00:05:48.909Z,56.88
2019-05-23T00:08:21.715Z,57.26
2019-05-23T00:11:22.161Z,57.05
2019-05-23T00:14:01.023Z,57.13
2019-05-23T00:16:31.841Z,57.70
2019-05-23T00:19:02.331Z,57.89
2019-05-23T00:21:32.974Z,57.99
2019-05-23T00:24:03.002Z,58.20
2019-05-23T00:26:34.579Z,58.51
2019-05-23T00:29:10.392Z,58.75
2019-05-23T00:31:54.031Z,58.94
2019-05-23T00:34:25.420Z,59.25
2019-05-23T00:36:55.098Z,59.51
2019-05-23T00:39:26.131Z,59.61
2019-05-23T00:41:55.960Z,59.74
2019-05-23T00:44:25.920Z,59.90
2019-05-23T00:46:55.970Z,59.71
2019-05-23T00:49:26.829Z,59.50
2019-05-23T00:51:57.069Z,59.54
2019-05-23T00:54:27.131Z,60.06
2019-05-23T00:56:58.754Z,60.25
2019-05-23T00:59:28.499Z,59.76
2019-05-23T01:01:58.225Z,60.07
2019-05-23T01:04:29.978Z,60.01
2019-05-23T01:06:59.825Z,59.98
2019-05-23T01:09:30.026Z,60.36
2019-05-23T01:11:59.740Z,60.66
2019-05-23T01:14:29.999Z,60.18
2019-05-23T01:17:01.162Z,59.92
2019-05-23T01:19:32.193Z,59.53
2019-05-23T01:22:07.749Z,60.08
2019-05-23T01:24:42.494Z,59.93
2019-05-23T01:27:12.970Z,59.91
2019-05-23T01:29:49.654Z,59.86
2019-05-23T01:32:27.583Z,60.24
2019-05-23T01:34:57.908Z,60.08
2019-05-23T01:37:28.045Z,60.05
2019-05-23T01:39:58.555Z,59.95
2019-05-23T01:42:28.337Z,59.99
2019-05-23T01:44:59.424Z,60.04
2019-05-23T01:47:29.352Z,59.96
2019-05-23T01:49:59.981Z,59.92
2019-05-23T01:52:30.042Z,59.89
2019-05-23T01:55:00.307Z,59.94
2019-05-23T01:57:29.864Z,59.60
2019-05-23T02:00:10.409Z,59.89
2019-05-23T02:02:32.344Z,59.43
2019-05-23T02:05:02.217Z,59.61
2019-05-23T02:07:31.851Z,59.20
2019-05-23T02:10:02.079Z,59.27
2019-05-23T02:12:33.565Z,59.15
2019-05-23T02:15:04.154Z,59.38
2019-05-23T02:17:33.651Z,59.64
2019-05-23T02:20:04.531Z,59.49
2019-05-23T02:22:34.430Z,58.98
2019-05-23T02:25:06.985Z,58.74
2019-05-23T02:27:37.244Z,58.59
2019-05-23T02:30:30.076Z,58.24
2019-05-23T02:32:41.294Z,57.97
2019-05-23T02:35:11.589Z,57.64
2019-05-23T02:38:00.045Z,57.36
2019-05-23T02:40:51.575Z,57.11
2019-05-23T02:43:23.340Z,57.04
2019-05-23T02:45:57.652Z,56.54
2019-05-23T02:48:35.720Z,56.09
2019-05-23T02:51:08.900Z,55.88
2019-05-23T02:53:40.585Z,55.41
2019-05-23T02:56:13.419Z,55.73
2019-05-23T02:59:15.640Z,56.55
2019-05-23T03:02:51.647Z,56.66
2019-05-23T03:05:25.462Z,56.37
2019-05-23T03:07:56.653Z,56.41
2019-05-23T03:10:28.647Z,56.52
2019-05-23T03:12:59.349Z,56.40
2019-05-23T03:15:29.346Z,56.05
2019-05-23T03:18:01.681Z,55.60
2019-05-23T03:20:31.523Z,55.19
2019-05-23T03:23:08.303Z,54.92
2019-05-23T03:26:16.696Z,54.74
2019-05-23T03:28:46.109Z,54.08
2019-05-23T03:31:29.743Z,53.50
2019-05-23T03:33:54.742Z,53.28
2019-05-23T03:36:25.063Z,53.39
2019-05-23T03:38:54.810Z,53.31
2019-05-23T03:41:25.390Z,52.58
2019-05-23T03:43:55.227Z,52.27
2019-05-23T03:46:27.140Z,52.45
2019-05-23T03:48:57.963Z,52.25
2019-05-23T03:51:28.687Z,51.86
2019-05-23T03:53:58.574Z,52.45
2019-05-23T03:56:29.443Z,53.20
2019-05-23T03:59:00.505Z,53.56
2019-05-23T04:01:47.013Z,54.21
2019-05-23T04:04:03.629Z,54.59
2019-05-23T04:06:34.113Z,54.83
2019-05-23T04:09:06.654Z,54.88
2019-05-23T04:11:37.028Z,55.03
2019-05-23T04:14:07.318Z,54.42
2019-05-23T04:16:36.776Z,55.13
2019-05-23T04:19:06.532Z,54.57
2019-05-23T04:21:36.535Z,54.93
2019-05-23T04:24:06.353Z,55.40
2019-05-23T04:26:36.292Z,55.26
2019-05-23T04:29:06.204Z,54.95
2019-05-23T04:31:35.588Z,54.18
2019-05-23T04:34:05.290Z,52.17
2019-05-23T04:36:34.761Z,51.77
2019-05-23T04:39:05.516Z,52.00
2019-05-23T04:41:35.160Z,51.54
2019-05-23T04:44:05.547Z,51.13
2019-05-23T04:46:35.597Z,51.09
2019-05-23T04:49:08.000Z,50.77
2019-05-23T04:51:37.579Z,50.23
2019-05-23T04:54:07.549Z,49.54
2019-05-23T04:56:37.356Z,49.13
2019-05-23T04:59:07.016Z,48.99
2019-05-23T05:01:37.350Z,49.45
2019-05-23T05:04:07.818Z,49.42
2019-05-23T05:06:38.019Z,49.53
2019-05-23T05:09:11.151Z,48.88
2019-05-23T05:11:41.176Z,48.15
2019-05-23T05:14:11.050Z,48.07
2019-05-23T05:16:40.720Z,47.46
2019-05-23T05:19:10.655Z,47.38
2019-05-23T05:21:40.297Z,47.49
2019-05-23T05:24:10.195Z,47.16
2019-05-23T05:26:40.303Z,47.34
2019-05-23T05:29:09.829Z,47.07
2019-05-23T05:31:39.714Z,46.54
2019-05-23T05:34:09.438Z,46.63
2019-05-23T05:36:39.562Z,46.96
2019-05-23T05:39:09.393Z,47.22
2019-05-23T05:41:39.339Z,45.21
2019-05-23T05:44:11.768Z,45.22
2019-05-23T05:46:41.353Z,46.36
2019-05-23T05:49:12.873Z,45.14
2019-05-23T05:51:42.581Z,45.13
2019-05-23T05:54:13.018Z,44.50
2019-05-23T05:56:42.626Z,44.47
2019-05-23T05:59:12.473Z,43.89
2019-05-23T06:01:42.745Z,44.14
2019-05-23T06:04:12.381Z,44.39
2019-05-23T06:06:50.077Z,44.14
2019-05-23T06:09:23.718Z,44.83
2019-05-23T06:11:53.521Z,44.55
2019-05-23T06:14:23.091Z,44.10
2019-05-23T06:16:55.029Z,43.31
2019-05-23T06:19:25.128Z,43.06
2019-05-23T06:21:54.957Z,43.26
2019-05-23T06:24:42.851Z,43.57
2019-05-23T06:26:56.236Z,43.84
2019-05-23T06:29:25.900Z,43.68
2019-05-23T06:31:56.837Z,43.59
2019-05-23T06:34:26.835Z,43.55
2019-05-23T06:36:56.813Z,43.85
2019-05-23T06:39:27.005Z,44.34
2019-05-23T06:41:57.161Z,43.15
2019-05-23T06:44:27.251Z,44.34
2019-05-23T06:46:57.212Z,43.77
2019-05-23T06:49:26.806Z,43.12
2019-05-23T06:51:56.180Z,43.01
2019-05-23T06:54:25.944Z,43.67
2019-05-23T06:56:55.410Z,43.26
2019-05-23T06:59:25.236Z,43.06
2019-05-23T07:01:55.420Z,43.52
2019-05-23T07:04:24.998Z,43.25
2019-05-23T07:06:54.668Z,43.04
2019-05-23T07:09:24.306Z,43.92
2019-05-23T07:11:57.601Z,42.88
2019-05-23T07:14:27.590Z,42.78
2019-05-23T07:16:57.182Z,42.23
2019-05-23T07:19:27.110Z,42.10
2019-05-23T07:21:56.766Z,41.86
2019-05-23T07:24:26.937Z,42.49
2019-05-23T07:26:56.713Z,41.30
2019-05-23T07:29:26.874Z,41.30
2019-05-23T07:31:56.961Z,41.25
2019-05-23T07:34:26.579Z,40.86
2019-05-23T07:36:56.335Z,39.81
2019-05-23T07:39:26.126Z,40.79
2019-05-23T07:41:55.598Z,40.32
2019-05-23T07:44:25.532Z,39.49
2019-05-23T07:46:55.243Z,39.52
2019-05-23T07:49:24.999Z,39.45
2019-05-23T07:51:54.541Z,40.03
2019-05-23T07:54:42.354Z,39.55
2019-05-23T07:57:14.168Z,39.35
2019-05-23T07:59:44.401Z,39.36
2019-05-23T08:02:29.508Z,38.56
2019-05-23T08:04:59.622Z,38.67
2019-05-23T08:07:32.878Z,38.85
2019-05-23T08:10:01.749Z,39.15
2019-05-23T08:12:31.137Z,38.77
2019-05-23T08:15:01.050Z,38.51
2019-05-23T08:17:31.494Z,38.27
2019-05-23T08:20:01.250Z,38.55
2019-05-23T08:22:31.371Z,38.44
2019-05-23T08:25:00.852Z,38.58
2019-05-23T08:27:31.091Z,38.75
2019-05-23T08:30:02.375Z,37.71
2019-05-23T08:32:32.075Z,36.92
2019-05-23T08:35:02.684Z,36.78
2019-05-23T08:37:32.482Z,36.86
2019-05-23T08:40:02.077Z,37.86
2019-05-23T08:42:33.046Z,36.52
2019-05-23T08:45:03.707Z,36.97
2019-05-23T08:47:33.285Z,36.41
2019-05-23T08:50:03.158Z,35.14
2019-05-23T08:52:33.278Z,34.86
2019-05-23T08:55:08.303Z,34.56
2019-05-23T08:57:37.807Z,34.84
2019-05-23T09:00:07.892Z,34.05
2019-05-23T09:02:37.751Z,34.14
2019-05-23T09:05:08.376Z,33.28
2019-05-23T09:07:38.171Z,31.32
2019-05-23T09:10:08.109Z,32.62
2019-05-23T09:12:38.570Z,32.38
2019-05-23T09:15:10.007Z,32.49
2019-05-23T09:17:52.532Z,32.17
2019-05-23T09:20:11.672Z,31.31
2019-05-23T09:22:41.782Z,30.74
2019-05-23T09:25:13.100Z,28.87
2019-05-23T09:27:42.578Z,27.91
2019-05-23T09:30:12.969Z,27.63
2019-05-23T09:32:42.606Z,27.48
2019-05-23T09:35:20.751Z,27.70
2019-05-23T09:37:45.016Z,28.67
2019-05-23T09:40:14.992Z,30.75
2019-05-23T09:42:44.509Z,31.80
2019-05-23T09:45:14.700Z,32.51
2019-05-23T09:47:44.409Z,32.12
2019-05-23T09:50:16.501Z,32.04
2019-05-23T09:52:46.108Z,32.33
2019-05-23T09:55:16.280Z,32.11
2019-05-23T09:57:45.772Z,31.01
2019-05-23T10:00:18.537Z,31.36
2019-05-23T10:02:48.354Z,31.19
2019-05-23T10:05:18.236Z,31.34
2019-05-23T10:07:48.069Z,31.27
2019-05-23T10:10:19.225Z,31.91
2019-05-23T10:12:48.910Z,31.74
2019-05-23T10:15:40.490Z,31.48
2019-05-23T10:18:13.988Z,31.01
2019-05-23T10:20:43.752Z,29.45
2019-05-23T10:23:13.480Z,27.90
2019-05-23T10:25:42.856Z,26.62
2019-05-23T10:28:12.415Z,23.35
2019-05-23T10:30:42.298Z,22.52
2019-05-23T10:33:13.236Z,23.67
2019-05-23T10:35:59.164Z,24.77
2019-05-23T10:38:14.353Z,25.29
2019-05-23T10:40:44.301Z,25.45
2019-05-23T10:43:14.978Z,25.83
2019-05-23T10:45:44.597Z,27.35
2019-05-23T10:48:15.698Z,28.58
2019-05-23T10:50:45.597Z,28.58
2019-05-23T10:53:17.019Z,28.82
2019-05-23T10:55:46.457Z,28.59
2019-05-23T10:58:17.081Z,28.63
2019-05-23T11:00:47.382Z,29.84
2019-05-23T11:03:17.612Z,28.76
2019-05-23T11:05:47.085Z,29.26
2019-05-23T11:08:17.502Z,30.43
2019-05-23T11:10:47.099Z,31.45
2019-05-23T11:13:16.725Z,31.77
2019-05-23T11:15:46.655Z,32.06
2019-05-23T11:18:16.847Z,31.45
2019-05-23T11:20:46.383Z,31.05
2019-05-23T11:23:20.452Z,30.54
2019-05-23T11:25:50.402Z,30.75
2019-05-23T11:28:20.141Z,30.27
2019-05-23T11:30:53.868Z,30.50
2019-05-23T11:33:24.268Z,30.44
2019-05-23T11:35:54.164Z,31.45
2019-05-23T11:38:25.111Z,31.69
2019-05-23T11:40:54.789Z,33.90
2019-05-23T11:43:24.296Z,36.42
2019-05-23T11:46:15.684Z,37.83
2019-05-23T11:48:45.496Z,36.56
2019-05-23T11:51:15.858Z,38.44
2019-05-23T11:54:04.045Z,39.20
2019-05-23T11:56:17.312Z,39.73
2019-05-23T11:58:47.041Z,39.37
2019-05-23T12:01:28.075Z,40.79
2019-05-23T12:04:01.433Z,41.54
2019-05-23T12:06:53.439Z,41.75
2019-05-23T12:09:08.806Z,43.00
2019-05-23T12:11:42.465Z,42.87
2019-05-23T12:14:10.239Z,43.52
2019-05-23T12:16:40.222Z,42.09
2019-05-23T12:19:09.778Z,40.29
2019-05-23T12:21:39.490Z,38.97
2019-05-23T12:24:09.062Z,36.01
2019-05-23T12:26:38.705Z,33.72
2019-05-23T12:29:08.173Z,32.93
2019-05-23T12:31:37.714Z,30.73
2019-05-23T12:34:07.088Z,28.85
2019-05-23T12:36:37.205Z,28.97
2019-05-23T12:39:09.327Z,28.96
2019-05-23T12:41:39.837Z,29.17
2019-05-23T12:44:09.796Z,29.30
2019-05-23T12:46:40.077Z,28.97
2019-05-23T12:49:26.757Z,29.82
2019-05-23T12:51:57.128Z,30.90
2019-05-23T12:54:26.817Z,31.62
2019-05-23T12:56:56.998Z,33.38
2019-05-23T12:59:27.189Z,34.70
2019-05-23T13:01:58.175Z,35.48
2019-05-23T13:04:28.665Z,36.29
2019-05-23T13:06:58.541Z,36.88
2019-05-23T13:09:28.332Z,38.23
2019-05-23T13:11:57.975Z,39.29
2019-05-23T13:14:27.865Z,40.03
2019-05-23T13:17:00.726Z,40.21
2019-05-23T13:19:30.236Z,39.48
2019-05-23T13:22:00.142Z,39.04
2019-05-23T13:24:50.587Z,38.66
2019-05-23T13:27:02.234Z,38.92
2019-05-23T13:29:31.888Z,39.46
2019-05-23T13:32:01.751Z,39.39
2019-05-23T13:34:31.581Z,39.62
2019-05-23T13:37:01.514Z,39.43
2019-05-23T13:39:31.151Z,39.46
2019-05-23T13:42:01.024Z,39.98
2019-05-23T13:44:35.292Z,39.23
2019-05-23T13:47:02.157Z,39.64
2019-05-23T13:49:32.366Z,39.92
2019-05-23T13:52:01.880Z,38.99
2019-05-23T13:54:35.942Z,38.59
2019-05-23T13:57:03.425Z,38.45
2019-05-23T13:59:33.693Z,38.16
2019-05-23T14:02:03.485Z,37.57
2019-05-23T14:04:33.045Z,37.31
2019-05-23T14:07:02.581Z,37.77
2019-05-23T14:09:32.995Z,37.55
2019-05-23T14:14:33.750Z,36.62
2019-05-23T14:17:22.592Z,37.59
2019-05-23T14:19:52.086Z,37.86
2019-05-23T14:22:22.353Z,38.02
2019-05-23T14:24:51.868Z,38.39
2019-05-23T14:27:40.625Z,38.40
2019-05-23T14:30:29.955Z,38.73
2019-05-23T14:33:01.311Z,38.98
2019-05-23T14:35:32.865Z,39.60
2019-05-23T14:38:04.071Z,38.80
2019-05-23T14:40:34.013Z,39.35
2019-05-23T14:43:09.879Z,39.68
2019-05-23T14:46:01.700Z,39.39
2019-05-23T14:49:05.474Z,40.51
2019-05-23T14:51:41.891Z,39.72
2019-05-23T14:54:16.079Z,41.84
2019-05-23T14:56:46.152Z,41.47
2019-05-23T14:59:15.905Z,42.73
2019-05-23T15:01:46.056Z,43.36
2019-05-23T15:04:15.769Z,42.92
2019-05-23T15:06:45.301Z,40.98
2019-05-23T15:09:14.705Z,40.97
2019-05-23T15:11:44.399Z,42.55
2019-05-23T15:14:14.079Z,44.89
2019-05-23T15:16:43.688Z,46.70
2019-05-23T15:19:13.422Z,47.37
2019-05-23T15:21:43.329Z,48.81
2019-05-23T15:24:12.889Z,49.46
2019-05-23T15:26:42.746Z,50.91
2019-05-23T15:29:12.383Z,51.77
2019-05-23T15:31:42.040Z,51.48
2019-05-23T15:34:11.417Z,51.53
2019-05-23T15:36:40.825Z,52.00
2019-05-23T15:39:11.058Z,52.56
2019-05-23T15:41:40.540Z,51.57
2019-05-23T15:44:24.526Z,51.16
2019-05-23T15:46:41.470Z,51.34
2019-05-23T15:49:13.335Z,51.55
2019-05-23T15:51:53.831Z,51.63
2019-05-23T15:54:49.109Z,52.15
2019-05-23T15:57:25.794Z,52.28
2019-05-23T16:00:06.092Z,51.87
2019-05-23T16:03:03.673Z,51.63
2019-05-23T16:05:33.533Z,52.00
2019-05-23T16:08:03.741Z,51.75
2019-05-23T16:10:33.683Z,50.72
2019-05-23T16:13:03.205Z,50.33
2019-05-23T16:15:32.734Z,50.33
2019-05-23T16:18:02.884Z,50.30
2019-05-23T16:20:32.414Z,50.58
2019-05-23T16:23:02.453Z,50.75
2019-05-23T16:25:31.840Z,50.35
2019-05-23T16:28:01.559Z,50.38
2019-05-23T16:30:31.916Z,50.62
2019-05-23T16:33:01.307Z,50.50
2019-05-23T16:35:30.858Z,50.86
2019-05-23T16:38:00.599Z,50.76
2019-05-23T16:40:30.299Z,50.64
2019-05-23T16:42:59.900Z,50.47
2019-05-23T16:45:29.490Z,50.44
2019-05-23T16:47:58.975Z,50.83
2019-05-23T16:50:28.363Z,51.23
2019-05-23T16:52:57.926Z,51.36
2019-05-23T16:55:37.346Z,51.37
2019-05-23T16:58:16.502Z,51.88
2019-05-23T17:01:23.555Z,52.01
2019-05-23T17:04:04.502Z,53.16
2019-05-23T17:06:44.010Z,53.83
2019-05-23T17:09:35.531Z,53.98
2019-05-23T17:12:24.348Z,54.83
2019-05-23T17:14:58.757Z,54.70
2019-05-23T17:18:01.534Z,54.90
2019-05-23T17:20:37.624Z,54.81
2019-05-23T17:23:17.642Z,55.47
2019-05-23T17:25:53.111Z,55.91
2019-05-23T17:28:27.612Z,56.04
2019-05-23T17:31:02.838Z,56.48
2019-05-23T17:33:32.333Z,56.73
2019-05-23T17:36:02.235Z,56.51
2019-05-23T17:38:31.750Z,56.54
2019-05-23T17:41:01.281Z,56.34
2019-05-23T17:43:31.045Z,56.54
2019-05-23T17:46:01.014Z,56.71
2019-05-23T17:48:30.773Z,56.49
2019-05-23T17:51:00.356Z,56.63
2019-05-23T17:53:29.830Z,56.44
2019-05-23T17:55:59.343Z,56.38
2019-05-23T17:58:29.396Z,56.43
2019-05-23T18:00:59.006Z,56.67
2019-05-23T18:03:29.167Z,56.70
2019-05-23T18:05:58.826Z,57.44
2019-05-23T18:08:29.518Z,58.14
2019-05-23T18:10:59.206Z,59.35
2019-05-23T18:13:29.035Z,59.82
2019-05-23T18:15:59.181Z,60.29
2019-05-23T18:18:29.813Z,60.89
2019-05-23T18:20:59.901Z,61.51
2019-05-23T18:23:29.702Z,62.01
2019-05-23T18:25:59.965Z,62.68
2019-05-23T18:28:30.779Z,63.22
2019-05-23T18:31:11.010Z,63.98
2019-05-23T18:33:41.632Z,64.54
2019-05-23T18:36:11.494Z,64.75
2019-05-23T18:38:41.575Z,65.55
2019-05-23T18:41:11.641Z,65.78
2019-05-23T18:43:41.905Z,66.10
2019-05-23T18:48:44.817Z,66.86
2019-05-23T18:51:14.924Z,65.96
2019-05-23T18:53:44.524Z,65.69
2019-05-23T18:56:14.692Z,66.06
2019-05-23T18:58:44.189Z,67.16
2019-05-23T19:01:26.572Z,68.53
2019-05-23T19:03:57.119Z,69.58
2019-05-23T19:06:26.987Z,70.88
2019-05-23T19:08:57.276Z,72.19
2019-05-23T19:11:27.607Z,72.51
2019-05-23T19:13:57.743Z,73.80
2019-05-23T19:16:28.417Z,74.60
2019-05-23T19:18:58.438Z,75.43
2019-05-23T19:21:29.675Z,73.71
2019-05-23T19:23:59.890Z,75.30
2019-05-23T19:26:30.101Z,75.28
2019-05-23T19:29:00.273Z,74.59
2019-05-23T19:31:29.925Z,73.87
2019-05-23T19:33:59.554Z,74.16
2019-05-23T19:36:29.081Z,73.68
2019-05-23T19:38:59.147Z,72.61
2019-05-23T19:41:37.312Z,73.11
2019-05-23T19:43:59.840Z,73.38
2019-05-23T19:46:29.995Z,72.62
2019-05-23T19:48:59.776Z,71.54
2019-05-23T19:51:29.734Z,70.83
2019-05-23T19:53:59.490Z,70.79
2019-05-23T19:56:29.442Z,71.05
2019-05-23T19:58:58.960Z,72.19
2019-05-23T20:01:32.127Z,73.32
2019-05-23T20:04:02.047Z,71.73
2019-05-23T20:06:32.228Z,73.26
2019-05-23T20:09:01.817Z,73.71
2019-05-23T20:11:31.263Z,73.70
2019-05-23T20:14:01.082Z,73.64
2019-05-23T20:16:31.324Z,73.44
2019-05-23T20:19:01.045Z,74.01
2019-05-23T20:21:30.785Z,73.70
2019-05-23T20:24:00.531Z,73.91
2019-05-23T20:26:30.302Z,74.95
2019-05-23T20:29:03.168Z,75.48
2019-05-23T20:31:30.967Z,75.45
2019-05-23T20:34:00.970Z,75.11
2019-05-23T20:36:30.493Z,74.83
2019-05-23T20:39:00.324Z,74.76
2019-05-23T20:41:30.409Z,75.03
2019-05-23T20:44:00.015Z,75.49
2019-05-23T20:46:29.554Z,75.81
2019-05-23T20:48:59.400Z,76.16
2019-05-23T20:51:29.663Z,76.71
2019-05-23T20:53:59.274Z,76.80
2019-05-23T20:56:28.663Z,76.64
2019-05-23T20:58:58.657Z,77.02
2019-05-23T21:01:32.628Z,77.17
2019-05-23T21:04:02.320Z,77.47
2019-05-23T21:06:31.972Z,78.28
2019-05-23T21:09:01.704Z,78.13
2019-05-23T21:11:31.453Z,77.74
2019-05-23T21:14:01.349Z,77.58
2019-05-23T21:16:30.836Z,76.48
2019-05-23T21:19:28.310Z,75.41
2019-05-23T21:21:58.142Z,75.20
2019-05-23T21:24:28.013Z,73.90
2019-05-23T21:26:57.395Z,74.29
2019-05-23T21:29:26.908Z,75.31
2019-05-23T21:31:56.390Z,76.12
2019-05-23T21:34:25.833Z,76.06
2019-05-23T21:36:55.467Z,75.57
2019-05-23T21:39:25.122Z,76.00
2019-05-23T21:41:55.013Z,75.38
2019-05-23T21:44:24.484Z,75.28
2019-05-23T21:46:53.992Z,75.71
2019-05-23T21:49:23.582Z,76.30
2019-05-23T21:51:53.113Z,75.72
2019-05-23T21:54:22.499Z,75.74
2019-05-23T21:56:52.137Z,76.31
2019-05-23T21:59:21.818Z,77.04
2019-05-23T22:01:58.143Z,77.66
2019-05-23T22:04:34.317Z,78.25
2019-05-23T22:07:06.053Z,78.95
2019-05-23T22:09:35.607Z,78.94
2019-05-23T22:12:06.185Z,79.45
2019-05-23T22:14:36.608Z,79.77
2019-05-23T22:17:06.235Z,79.63
2019-05-23T22:19:36.139Z,80.01
2019-05-23T22:22:06.477Z,80.36
2019-05-23T22:24:36.254Z,80.57
2019-05-23T22:27:09.427Z,80.99
2019-05-23T22:29:38.881Z,80.50
2019-05-23T22:32:09.917Z,80.29
2019-05-23T22:34:44.750Z,80.17
2019-05-23T22:37:18.017Z,79.81
2019-05-23T22:39:47.906Z,79.66
2019-05-23T22:42:18.979Z,79.98
2019-05-23T22:44:48.529Z,80.33
2019-05-23T22:47:18.316Z,80.42
2019-05-23T22:49:48.301Z,79.98
2019-05-23T22:52:17.885Z,80.19
2019-05-23T22:54:47.542Z,79.59
2019-05-23T22:57:17.179Z,78.96
2019-05-23T22:59:46.999Z,79.16
2019-05-23T23:02:18.052Z,79.15
2019-05-23T23:04:47.937Z,79.32
2019-05-23T23:07:18.344Z,79.34
2019-05-23T23:09:47.819Z,79.54
2019-05-23T23:12:17.942Z,79.72
2019-05-23T23:14:47.436Z,79.74
2019-05-23T23:17:18.696Z,79.59
2019-05-23T23:19:48.109Z,79.65
2019-05-23T23:22:17.591Z,80.09
2019-05-23T23:24:47.429Z,80.16
2019-05-23T23:27:18.151Z,80.28
2019-05-23T23:29:47.819Z,80.45
2019-05-23T23:32:17.195Z,80.33
2019-05-23T23:34:46.860Z,80.45
2019-05-23T23:37:16.450Z,80.63
2019-05-23T23:39:45.924Z,80.84
2019-05-23T23:42:15.624Z,81.03
2019-05-23T23:44:44.654Z,81.25
2019-05-23T23:47:32.420Z,81.34
2019-05-23T23:50:19.577Z,81.64
2019-05-23T23:53:06.922Z,81.83
2019-05-23T23:55:54.177Z,81.93
2019-05-23T23:58:22.760Z,82.15
